Skip Navigation Links
NOAA logo - Click to go to the NOAA homepage
NOAA's National Weather Service
Alaska Aviation Weather Unit
  NWS logo - Click to go to the NWS homepage
Left Navbar Graphic     22 AKDT = 06 GMT

   
NOAA is celebrating 200 years of science, service, and stewardship. Visit the NOAA 200th celebration Web site to learn more.
USA.gov is the U.S. Government's official Web portal to all Federal, state and local government Web resources and services.
Facebook
NWS on Facebook

Important Change Regarding the AAWU Web Presence

 

Over the last several months, the AAWU has been working to navigate its webpages to a nationally supported server. Security, as well as other needs, have necessitated the change.  We have been given an extension for the site changeover while we diligently work at addressing feedback received. As of July 14, 2017, aawu.arh.noaa.gov will be discontinued. The new AAWU web address is weather.gov/aawu. It is now live and will run in-parallel with the old site until it is discontinued on July 14, 2017. Please continue to send any feedback or questions regarding the new webpages to nws.ar.aawu.webauthors@noaa.gov.  Thank you for your patience during this time of transition.
AAWU Home :: Display TAF Add Bookmark
TAF CYDQ 260038Z 2601/2605 VRB03KT P6SM FEW070
    RMK FCST BASED ON AUTO OBS. NXT FCST WILL BE ISSUED AT 261245Z=

METAR CYDQ 260000Z AUTO VRB02KT 9SM FEW075 27/10 A2994 RMK SLP146 DENSITY ALT 3900FT= METAR CYDQ 260100Z AUTO 19003KT 120V230 9SM CLR 27/10 A2993 RMK SLP141 DENSITY ALT 4000FT= METAR CYDQ 260200Z AUTO 27004KT 160V310 9SM CLR 27/10 A2993 RMK SLP137 DENSITY ALT 3900FT= METAR CYDQ 260300Z AUTO 17002KT 9SM CLR 26/11 A2993 RMK SLP134 DENSITY ALT 3900FT= METAR CYDQ 260400Z AUTO 28004KT 180V300 9SM CLR 19/14 A2993 RMK SLP138 DENSITY ALT 3000FT= METAR CYDQ 260500Z AUTO 27003KT 9SM CLR 18/13 A2993 RMK SLP140 DENSITY ALT 2900FT= METAR CYDQ 260600Z AUTO 00000KT 9SM CLR 15/12 A2994 RMK SLP142 DENSITY ALT 2600FT=
 Alaska TAF Map

NOAA's National Weather Service
Alaska Aviation Weather Unit
6930 Sand Lake Road
Anchorage, AK 99502-1845
Disclaimer
Credits
Glossary
Privacy Policy
About Us
Career Opportunities
Contact AAWU Internet Services Site last modified: April, 17th 2012